Time;durP1;ratioP1;P1;durP2;ratioP2;P2;SDS_P1;SDS_P2;PMS_P1;PMS_P2;Temp;Humidity;BMP_temperature;BMP_pressure;BME280_temperature;BME280_humidity;BME280_pressure;Samples;Min_cycle;Max_cycle;Signal;HPM_P1;HPM_P2
2022/06/06 00:01:37;;;;;;;7.23;6.63;;;;;;;30.04;39.45;94414.19;5083547;28;20509;-75
2022/06/06 00:04:03;;;;;;;9.03;6.10;;;;;;;30.47;39.15;94408.59;5083082;28;20442;-75
2022/06/06 00:06:28;;;;;;;5.97;5.40;;;;;;;30.64;38.48;94409.59;5079235;28;20299;-75
2022/06/06 00:08:54;;;;;;;5.73;5.03;;;;;;;30.90;37.89;94407.53;5083221;28;20203;-75
2022/06/06 00:11:19;;;;;;;6.87;6.20;;;;;;;30.97;38.02;94400.84;5076830;28;20177;-76
2022/06/06 00:13:46;;;;;;;6.47;5.87;;;;;;;30.99;37.75;94391.28;5081619;28;20545;-75
2022/06/06 00:16:11;;;;;;;7.67;6.47;;;;;;;31.24;37.34;94394.09;5081194;28;20186;-76
2022/06/06 00:18:38;;;;;;;7.23;6.63;;;;;;;29.88;39.53;94395.00;5080445;28;20546;-75
2022/06/06 00:21:07;;;;;;;6.63;5.93;;;;;;;30.43;38.94;94391.47;5083712;28;20193;-76
2022/06/06 00:23:34;;;;;;;7.13;6.10;;;;;;;30.72;37.69;94384.47;5080020;28;20432;-76
2022/06/06 00:25:59;;;;;;;9.97;5.97;;;;;;;30.75;38.14;94375.69;5083073;28;20432;-75
2022/06/06 00:28:25;;;;;;;7.73;6.43;;;;;;;29.74;39.82;94374.44;5081096;28;20423;-76
2022/06/06 00:34:48;;;;;;;7.57;6.30;;;;;;;30.12;39.67;94362.84;5081562;28;20186;-76
2022/06/06 00:36:31;;;;;;;7.77;5.20;;;;;;;30.03;39.22;94358.59;5081839;28;20419;-75
2022/06/06 00:38:56;;;;;;;7.90;6.03;;;;;;;29.82;39.90;94342.34;5084456;28;20459;-75
2022/06/06 00:41:22;;;;;;;6.57;6.00;;;;;;;29.43;40.50;94345.00;5084898;28;20510;-74
2022/06/06 00:44:05;;;;;;;6.40;5.90;;;;;;;29.96;39.78;94346.41;5080189;28;20209;-74
2022/06/06 00:46:34;;;;;;;8.47;7.10;;;;;;;29.78;40.36;94347.59;5071070;28;20181;-75
2022/06/06 00:49:02;;;;;;;7.53;5.70;;;;;;;29.42;40.63;94334.53;5083372;28;20439;-76
2022/06/06 00:51:30;;;;;;;6.60;6.10;;;;;;;29.38;40.69;94342.47;5082374;28;20811;-75
2022/06/06 00:53:57;;;;;;;7.17;6.57;;;;;;;29.78;40.41;94329.53;5084268;28;20446;-75
2022/06/06 00:56:43;;;;;;;7.57;6.83;;;;;;;29.55;40.20;94315.44;5081750;28;20429;-75
2022/06/06 00:59:16;;;;;;;8.50;6.10;;;;;;;29.22;41.37;94312.53;5084122;28;20983;-75
2022/06/06 01:01:41;;;;;;;7.10;6.37;;;;;;;30.00;39.95;94316.88;5078839;28;20436;-75
2022/06/06 01:04:11;;;;;;;6.90;6.30;;;;;;;30.20;38.91;94309.13;5084603;28;20430;-74
2022/06/06 01:06:41;;;;;;;11.07;6.43;;;;;;;30.35;39.01;94306.69;5084207;28;20182;-75
2022/06/06 01:09:07;;;;;;;5.27;4.87;;;;;;;30.61;38.41;94299.50;5081812;28;20902;-75
2022/06/06 01:11:36;;;;;;;6.70;6.10;;;;;;;30.70;38.11;94295.63;5083846;28;20722;-75
2022/06/06 01:14:03;;;;;;;6.63;6.03;;;;;;;31.03;37.24;94286.75;5078786;28;20428;-75
2022/06/06 01:16:51;;;;;;;7.07;5.70;;;;;;;31.17;37.91;94270.25;5079621;28;20435;-76
2022/06/06 01:19:55;;;;;;;6.80;6.20;;;;;;;31.03;38.34;94275.16;5072763;28;20562;-75
2022/06/06 01:22:41;;;;;;;8.37;6.83;;;;;;;30.33;39.20;94275.72;5051422;28;20443;-76
2022/06/06 01:25:13;;;;;;;7.40;6.77;;;;;;;29.85;40.55;94268.88;5076842;28;20411;-75
2022/06/06 01:27:51;;;;;;;9.13;7.13;;;;;;;30.40;40.04;94270.59;5082307;28;20493;-75
2022/06/06 01:30:22;;;;;;;9.40;6.80;;;;;;;30.38;39.67;94278.22;5070432;28;20424;-75
2022/06/06 01:32:55;;;;;;;6.80;6.13;;;;;;;30.06;40.95;94283.19;5083994;28;20439;-75
2022/06/06 01:35:24;;;;;;;7.13;6.43;;;;;;;30.30;40.57;94320.34;5083476;28;20490;-76
2022/06/06 01:37:49;;;;;;;7.63;6.10;;;;;;;26.86;49.62;94408.56;5070739;28;20560;-76
2022/06/06 01:40:17;;;;;;;8.57;5.53;;;;;;;26.90;48.32;94430.22;5077252;28;20412;-75
2022/06/06 01:43:09;;;;;;;10.40;7.23;;;;;;;27.41;46.76;94434.44;5077216;28;20181;-75
2022/06/06 01:45:42;;;;;;;11.93;8.37;;;;;;;28.33;45.14;94450.13;5083326;28;20775;-75
2022/06/06 01:48:19;;;;;;;13.67;9.53;;;;;;;28.57;46.16;94457.84;5072061;28;20883;-75
2022/06/06 01:50:45;;;;;;;24.00;10.50;;;;;;;28.39;47.29;94454.25;5081926;28;20461;-73
2022/06/06 01:53:14;;;;;;;13.43;9.67;;;;;;;28.56;47.15;94407.75;5076070;28;21000;-74
2022/06/06 01:55:45;;;;;;;11.57;8.27;;;;;;;27.95;48.78;94377.16;5077476;28;20439;-74
2022/06/06 01:58:27;;;;;;;9.70;6.57;;;;;;;26.41;52.14;94364.69;5079893;28;20469;-73
2022/06/06 02:00:53;;;;;;;10.47;5.93;;;;;;;26.28;52.71;94375.13;5071177;28;20450;-74
2022/06/06 02:03:19;;;;;;;7.57;5.27;;;;;;;27.27;50.61;94371.88;5083945;28;20451;-74
2022/06/06 02:05:44;;;;;;;6.77;5.00;;;;;;;25.95;53.61;94373.66;5079092;28;20213;-73
2022/06/06 02:08:10;;;;;;;11.80;5.30;;;;;;;26.82;51.96;94377.22;5081338;28;20431;-73
2022/06/06 02:10:36;;;;;;;6.83;4.40;;;;;;;26.88;50.70;94384.88;5075683;28;20209;-74
2022/06/06 02:13:01;;;;;;;7.93;4.00;;;;;;;27.63;49.36;94387.13;5080343;28;20206;-74
2022/06/06 02:15:28;;;;;;;7.13;5.40;;;;;;;27.72;49.28;94406.78;5086761;28;20547;-74
2022/06/06 02:17:55;;;;;;;6.80;3.67;;;;;;;27.80;48.77;94424.06;5079690;28;20285;-74
2022/06/06 02:20:23;;;;;;;6.73;4.33;;;;;;;27.11;50.67;94453.91;5083227;28;20426;-74
2022/06/06 02:22:48;;;;;;;8.90;4.80;;;;;;;26.78;51.31;94451.44;5082595;28;20466;-74
2022/06/06 02:25:14;;;;;;;7.20;4.70;;;;;;;27.46;49.48;94455.81;5079458;28;20437;-72
2022/06/06 02:27:41;;;;;;;6.63;4.73;;;;;;;26.76;51.75;94450.94;5083258;28;20206;-73
2022/06/06 02:30:10;;;;;;;8.93;5.23;;;;;;;26.18;53.29;94471.91;5075344;28;20425;-74
2022/06/06 02:32:36;;;;;;;10.60;5.40;;;;;;;26.37;53.92;94481.75;5075834;28;20557;-75
2022/06/06 02:35:01;;;;;;;10.83;6.23;;;;;;;26.37;53.47;94485.25;5082559;28;20498;-75
2022/06/06 02:37:27;;;;;;;5.43;4.93;;;;;;;26.23;53.05;94479.84;5081908;28;20177;-74
2022/06/06 02:39:52;;;;;;;7.07;4.93;;;;;;;27.26;50.74;94464.34;5075875;28;20178;-76
2022/06/06 02:42:18;;;;;;;7.13;5.00;;;;;;;27.34;49.96;94452.88;5081063;28;20176;-76
2022/06/06 02:44:43;;;;;;;6.57;4.97;;;;;;;28.12;48.82;94433.75;5082729;28;20210;-74
2022/06/06 02:47:08;;;;;;;8.93;4.00;;;;;;;28.35;47.45;94423.69;5073898;28;20177;-75
2022/06/06 02:49:34;;;;;;;9.73;4.93;;;;;;;28.14;48.00;94399.22;5095730;28;20177;-74
2022/06/06 02:52:01;;;;;;;9.13;5.77;;;;;;;28.01;49.23;94392.06;5078062;28;20181;-74
2022/06/06 02:54:27;;;;;;;13.07;7.17;;;;;;;28.44;47.69;94345.63;5083387;28;20177;-74
2022/06/06 02:56:52;;;;;;;7.57;4.50;;;;;;;28.17;48.42;94335.91;5082929;28;20404;-73
2022/06/06 02:59:21;;;;;;;8.00;4.03;;;;;;;28.27;48.72;94340.19;5077703;28;20194;-73
2022/06/06 03:01:46;;;;;;;6.33;5.17;;;;;;;28.46;48.83;94342.59;5082370;28;20170;-73
2022/06/06 03:04:12;;;;;;;9.53;5.60;;;;;;;28.92;48.07;94339.34;5078357;28;20904;-74
2022/06/06 03:07:07;;;;;;;5.80;5.20;;;;;;;29.24;47.81;94349.97;5082519;28;20174;-74
2022/06/06 03:09:44;;;;;;;10.87;6.40;;;;;;;28.49;50.17;94350.06;5083975;28;20170;-73
2022/06/06 03:12:28;;;;;;;7.10;6.40;;;;;;;28.55;49.85;94362.28;5086666;28;20412;-74
2022/06/06 03:15:11;;;;;;;9.47;6.77;;;;;;;28.49;50.38;94367.00;5086287;28;20418;-74
2022/06/06 03:21:22;;;;;;;7.80;7.07;;;;;;;28.49;50.96;94403.91;5085380;28;20395;-74
2022/06/06 03:24:20;;;;;;;8.20;7.43;;;;;;;28.86;50.14;94405.28;5083678;28;20465;-73
2022/06/06 03:27:17;;;;;;;9.50;7.80;;;;;;;28.01;51.96;94418.97;5080514;28;20429;-74
2022/06/06 03:29:57;;;;;;;8.83;7.93;;;;;;;27.76;52.84;94444.63;5085078;28;20431;-74
2022/06/06 03:32:51;;;;;;;11.13;8.73;;;;;;;26.42;56.98;94460.19;5072716;28;20428;-73
2022/06/06 03:35:51;;;;;;;10.57;9.50;;;;;;;27.89;52.72;94465.28;5099002;28;20468;-73
2022/06/06 03:38:44;;;;;;;12.50;8.80;;;;;;;28.12;51.75;94463.34;5084697;28;20532;-73
2022/06/06 03:41:41;;;;;;;12.23;9.17;;;;;;;27.70;52.83;94456.59;5075754;28;20473;-73
2022/06/06 03:44:17;;;;;;;15.80;9.40;;;;;;;27.89;52.35;94453.72;5077364;28;20519;-73
2022/06/06 03:47:01;;;;;;;17.00;9.97;;;;;;;26.62;55.26;94451.75;5085413;28;20930;-73
2022/06/06 03:49:41;;;;;;;13.70;10.60;;;;;;;27.32;54.26;94455.09;5083437;28;20428;-73
2022/06/06 03:52:24;;;;;;;12.03;9.43;;;;;;;27.66;53.49;94456.44;5076128;28;20401;-73
2022/06/06 03:55:28;;;;;;;14.93;12.10;;;;;;;27.49;53.31;94456.28;5078865;28;20505;-73
2022/06/06 03:57:56;;;;;;;13.40;11.00;;;;;;;27.99;52.71;94450.78;5082667;28;20489;-73
2022/06/06 04:00:22;;;;;;;18.03;11.63;;;;;;;28.30;52.03;94437.28;5072843;28;20754;-74
2022/06/06 04:02:49;;;;;;;13.03;11.93;;;;;;;28.19;51.89;94431.41;5083993;28;20438;-74
2022/06/06 04:05:19;;;;;;;13.90;12.47;;;;;;;28.14;52.19;94430.75;5083470;28;20468;-73
2022/06/06 04:07:45;;;;;;;15.80;13.70;;;;;;;27.96;53.24;94437.94;5084228;28;20432;-73
2022/06/06 04:10:13;;;;;;;15.60;12.43;;;;;;;28.00;52.34;94428.13;5080354;28;20434;-73
2022/06/06 04:12:59;;;;;;;16.17;13.00;;;;;;;28.31;52.02;94433.50;5083152;28;20180;-74
2022/06/06 04:16:04;;;;;;;14.10;12.03;;;;;;;28.39;51.60;94429.22;5076393;28;20421;-73
2022/06/06 04:18:48;;;;;;;12.97;11.20;;;;;;;28.27;50.81;94426.34;5077050;28;20858;-74
2022/06/06 04:21:25;;;;;;;12.87;11.40;;;;;;;28.44;50.67;94412.94;5071163;28;20461;-74
2022/06/06 04:23:53;;;;;;;13.03;11.30;;;;;;;28.72;50.12;94420.78;5073990;28;20442;-74
2022/06/06 04:26:33;;;;;;;13.83;10.60;;;;;;;29.10;49.68;94420.97;5082242;28;20938;-74
2022/06/06 04:29:21;;;;;;;11.60;10.40;;;;;;;29.41;48.91;94427.34;5080629;28;20427;-73
2022/06/06 04:31:58;;;;;;;15.43;11.73;;;;;;;29.58;47.95;94427.31;5080761;28;20419;-74
2022/06/06 04:34:39;;;;;;;13.13;12.00;;;;;;;28.55;50.34;94438.50;5077058;28;20883;-77
2022/06/06 04:37:28;;;;;;;13.83;12.20;;;;;;;28.91;49.59;94428.56;5084432;28;20431;-73
2022/06/06 04:40:08;;;;;;;14.30;12.23;;;;;;;28.75;50.15;94423.63;5074709;28;20437;-73
2022/06/06 04:42:59;;;;;;;13.80;12.40;;;;;;;29.15;48.97;94428.91;5085092;28;20415;-73
2022/06/06 04:45:34;;;;;;;13.90;12.50;;;;;;;28.99;49.40;94433.97;5081901;28;20431;-73
2022/06/06 04:48:04;;;;;;;13.30;11.83;;;;;;;29.42;48.55;94426.22;5081598;28;20431;-73
2022/06/06 04:50:30;;;;;;;14.20;12.80;;;;;;;29.53;48.36;94446.34;5081363;28;20424;-73
2022/06/06 04:53:01;;;;;;;19.30;10.97;;;;;;;29.87;47.72;94450.13;5084301;28;20429;-74
2022/06/06 04:55:29;;;;;;;13.27;11.97;;;;;;;29.95;46.90;94455.47;5084687;28;20426;-73
2022/06/06 04:57:58;;;;;;;12.43;11.30;;;;;;;30.39;46.17;94452.63;5078324;28;20628;-73
2022/06/06 05:00:27;;;;;;;11.87;10.47;;;;;;;30.40;45.73;94454.25;5084312;28;20420;-74
2022/06/06 05:02:52;;;;;;;11.47;10.37;;;;;;;29.31;47.00;94456.22;5084046;28;20420;-74
2022/06/06 05:05:18;;;;;;;11.20;10.20;;;;;;;29.48;46.82;94452.72;5083689;28;20519;-73
2022/06/06 05:08:03;;;;;;;16.70;13.40;;;;;;;29.45;46.80;94449.84;5080780;28;20205;-74
2022/06/06 05:10:37;;;;;;;13.17;11.23;;;;;;;29.43;47.39;94460.16;5075618;28;20186;-74
2022/06/06 05:13:32;;;;;;;12.33;11.17;;;;;;;28.28;50.02;94450.25;5084017;28;20422;-74
2022/06/06 05:16:15;;;;;;;17.73;11.57;;;;;;;29.15;48.80;94455.09;5079984;28;20804;-74
2022/06/06 05:18:56;;;;;;;13.67;12.43;;;;;;;29.49;47.65;94450.78;5072201;28;20465;-74
2022/06/06 05:21:45;;;;;;;13.50;9.77;;;;;;;29.94;46.28;94453.13;5079861;28;20429;-74
2022/06/06 05:24:41;;;;;;;12.03;9.70;;;;;;;30.10;46.18;94461.47;5080679;28;20446;-74
2022/06/06 05:27:13;;;;;;;11.10;9.93;;;;;;;30.49;45.35;94468.50;5080534;28;20413;-74
2022/06/06 05:30:02;;;;;;;12.30;11.10;;;;;;;30.70;44.78;94467.75;5083869;28;20416;-74
2022/06/06 05:32:53;;;;;;;11.20;10.10;;;;;;;30.53;44.41;94460.53;5080044;28;20821;-74
2022/06/06 05:35:37;;;;;;;13.40;11.70;;;;;;;30.34;45.49;94447.44;5076680;28;20464;-75
2022/06/06 05:38:19;;;;;;;11.07;10.00;;;;;;;30.98;44.47;94456.47;5082329;28;20463;-74
2022/06/06 05:41:17;;;;;;;14.33;11.53;;;;;;;31.06;43.99;94459.13;5081823;28;20515;-74
2022/06/06 05:43:48;;;;;;;11.80;10.57;;;;;;;30.46;45.34;94463.72;5076962;28;20425;-74
2022/06/06 05:46:31;;;;;;;15.00;11.20;;;;;;;30.91;44.48;94460.50;5076377;28;20412;-74
2022/06/06 05:48:57;;;;;;;9.73;8.67;;;;;;;31.15;43.67;94467.16;5072621;28;20446;-74
2022/06/06 05:51:22;;;;;;;10.43;9.37;;;;;;;31.93;42.48;94468.44;5081452;28;21021;-74
2022/06/06 05:53:56;;;;;;;11.17;8.77;;;;;;;32.36;41.43;94474.50;5083161;28;20629;-74
2022/06/06 05:56:35;;;;;;;11.20;9.37;;;;;;;32.63;40.88;94473.88;5083389;28;20199;-74
2022/06/06 05:59:25;;;;;;;10.00;9.03;;;;;;;32.79;40.50;94468.53;5083420;28;20830;-76
2022/06/06 06:02:02;;;;;;;11.30;8.90;;;;;;;31.03;42.24;94456.28;5072418;28;20462;-74
2022/06/06 06:04:59;;;;;;;10.30;8.60;;;;;;;31.95;40.57;94460.75;5077467;28;20431;-74
2022/06/06 06:07:57;;;;;;;11.10;8.33;;;;;;;32.39;40.14;94458.34;5081413;28;20535;-74
2022/06/06 06:10:51;;;;;;;10.20;8.90;;;;;;;32.30;40.59;94465.78;5079361;28;20488;-74
2022/06/06 06:13:40;;;;;;;9.23;7.50;;;;;;;31.54;41.14;94473.25;5080522;28;20546;-74
2022/06/06 06:16:10;;;;;;;8.53;6.93;;;;;;;32.38;40.34;94473.03;5078111;28;20416;-74
2022/06/06 06:18:41;;;;;;;9.80;8.03;;;;;;;32.37;39.79;94471.44;5078647;28;20455;-74
2022/06/06 06:21:14;;;;;;;9.30;8.30;;;;;;;32.09;40.24;94476.72;5063823;28;20479;-75
2022/06/06 06:23:47;;;;;;;13.00;8.80;;;;;;;31.10;42.09;94470.06;5077639;28;20420;-74
2022/06/06 06:26:13;;;;;;;13.80;9.63;;;;;;;31.33;42.77;94471.31;5080453;28;20412;-75
2022/06/06 06:28:41;;;;;;;17.40;8.30;;;;;;;32.22;40.62;94472.13;5075248;28;20428;-75
2022/06/06 06:31:09;;;;;;;10.60;8.50;;;;;;;32.01;40.82;94478.38;5082791;28;20487;-75
2022/06/06 06:34:02;;;;;;;12.67;8.67;;;;;;;32.78;40.09;94474.28;5082324;28;21225;-75
2022/06/06 06:36:53;;;;;;;10.77;8.63;;;;;;;31.99;41.33;94466.28;5081640;28;20419;-74
2022/06/06 06:39:51;;;;;;;9.80;8.80;;;;;;;32.21;41.09;94456.97;5081808;28;20459;-75
2022/06/06 06:42:33;;;;;;;14.33;9.40;;;;;;;31.86;41.16;94458.13;5076297;28;20831;-75
2022/06/06 06:45:08;;;;;;;10.93;8.30;;;;;;;31.03;42.73;94454.38;5084489;28;20438;-75
2022/06/06 06:47:35;;;;;;;10.40;9.27;;;;;;;32.34;40.21;94442.31;5086083;28;20435;-74
2022/06/06 06:50:20;;;;;;;13.33;10.67;;;;;;;32.38;40.50;94437.81;5085512;28;20423;-75
2022/06/06 06:53:24;;;;;;;12.13;11.03;;;;;;;31.76;42.16;94433.41;5082717;28;20420;-75
2022/06/06 06:56:04;;;;;;;13.60;11.40;;;;;;;31.94;42.05;94425.88;5080591;28;20481;-75
2022/06/06 06:59:08;;;;;;;12.60;10.10;;;;;;;33.17;39.71;94409.63;5084651;28;20459;-75
2022/06/06 07:08:32;;;;;;;13.53;10.23;;;;;;;32.72;40.37;94416.81;5077885;28;20446;-75
2022/06/06 07:11:07;;;;;;;11.77;10.57;;;;;;;31.20;43.56;94417.50;5076542;28;20422;-75
2022/06/06 07:13:57;;;;;;;12.50;10.73;;;;;;;31.20;44.30;94402.06;5062026;28;20441;-76
2022/06/06 07:16:27;;;;;;;21.83;10.70;;;;;;;31.99;43.04;94399.38;5084897;28;20418;-76
2022/06/06 07:19:07;;;;;;;10.50;9.27;;;;;;;32.30;41.72;94396.16;5080616;28;20525;-75
2022/06/06 07:21:35;;;;;;;13.30;10.53;;;;;;;31.96;42.43;94391.94;5079179;28;20435;-80
2022/06/06 07:24:04;;;;;;;10.57;9.43;;;;;;;31.36;44.10;94386.03;5101754;28;20431;-81
2022/06/06 07:26:30;;;;;;;17.87;11.00;;;;;;;32.06;42.94;94388.81;5084113;28;20417;-80
2022/06/06 07:28:56;;;;;;;13.87;10.93;;;;;;;32.30;42.23;94396.16;5085138;28;20477;-80
2022/06/06 07:31:33;;;;;;;14.87;11.13;;;;;;;32.64;41.92;94383.28;5080509;28;21951;-80
2022/06/06 07:34:09;;;;;;;11.67;9.87;;;;;;;33.23;40.86;94392.75;5102009;28;20290;-80
2022/06/06 07:37:08;;;;;;;13.17;9.47;;;;;;;32.78;41.63;94398.38;5084578;28;20416;-81
2022/06/06 07:40:10;;;;;;;13.73;10.30;;;;;;;32.88;41.37;94403.34;5099126;28;21071;-81
2022/06/06 07:43:14;;;;;;;12.80;9.87;;;;;;;32.06;42.88;94407.78;5099635;28;20455;-80
2022/06/06 07:46:23;;;;;;;12.37;8.70;;;;;;;33.50;39.64;94405.88;5084485;28;20454;-79
2022/06/06 07:48:55;;;;;;;13.60;7.83;;;;;;;31.83;41.78;94406.56;5077726;28;20790;-80
2022/06/06 07:51:38;;;;;;;10.57;7.40;;;;;;;31.31;43.42;94411.34;5082253;28;20514;-79
2022/06/06 07:54:28;;;;;;;7.97;6.40;;;;;;;33.22;38.88;94410.19;5084235;28;20451;-79
2022/06/06 07:57:13;;;;;;;8.97;7.30;;;;;;;32.91;39.50;94402.66;5098555;28;20427;-79
2022/06/06 07:59:52;;;;;;;15.10;7.40;;;;;;;32.49;40.73;94409.13;5082869;28;20460;-80
2022/06/06 08:02:20;;;;;;;9.00;6.40;;;;;;;34.46;37.23;94414.94;5077658;28;20466;-80
2022/06/06 08:04:54;;;;;;;9.67;6.10;;;;;;;33.94;37.60;94414.03;5082981;28;20429;-79
2022/06/06 08:07:20;;;;;;;7.53;6.50;;;;;;;34.33;36.72;94401.44;5081591;28;20536;-81
2022/06/06 08:10:27;;;;;;;12.90;7.03;;;;;;;34.15;37.61;94402.91;5098928;28;20510;-83
2022/06/06 08:13:32;;;;;;;11.37;6.43;;;;;;;34.77;36.48;94403.22;5064215;28;20271;-81
2022/06/06 08:16:18;;;;;;;12.33;7.20;;;;;;;35.07;35.35;94419.03;5094523;28;20411;-82
2022/06/06 08:19:22;;;;;;;7.70;5.10;;;;;;;32.96;36.94;94415.97;5097630;28;20465;-80
2022/06/06 08:21:49;;;;;;;8.60;4.77;;;;;;;33.35;36.54;94407.41;5081250;28;20443;-83
2022/06/06 08:24:20;;;;;;;7.50;5.80;;;;;;;33.46;37.03;94422.06;5084137;28;20440;-82
2022/06/06 08:26:50;;;;;;;8.97;4.83;;;;;;;33.19;36.70;94415.50;5086892;28;20935;-81
2022/06/06 08:29:17;;;;;;;11.93;5.10;;;;;;;33.68;36.39;94425.41;5080047;28;20428;-83
2022/06/06 08:31:44;;;;;;;8.80;5.10;;;;;;;34.33;35.30;94431.34;5092506;28;20440;-83
2022/06/06 08:34:09;;;;;;;9.13;6.07;;;;;;;32.09;39.35;94433.38;5084007;28;20465;-82
2022/06/06 08:37:07;;;;;;;10.13;5.90;;;;;;;32.22;38.47;94432.28;5101348;28;20425;-82
2022/06/06 08:39:53;;;;;;;7.83;5.13;;;;;;;32.99;37.24;94426.16;5099398;28;20195;-80
2022/06/06 08:42:22;;;;;;;7.90;5.83;;;;;;;32.60;38.68;94427.69;5084403;28;20430;-81
2022/06/06 08:44:52;;;;;;;8.73;4.90;;;;;;;33.42;36.86;94424.66;5083394;28;20501;-81
2022/06/06 08:47:27;;;;;;;10.53;5.70;;;;;;;32.81;36.96;94422.13;5080678;28;20440;-81
2022/06/06 08:50:45;;;;;;;7.23;4.77;;;;;;;32.53;37.47;94430.13;5082249;28;20417;-81
2022/06/06 08:53:43;;;;;;;9.83;4.70;;;;;;;32.60;37.83;94435.81;5062699;28;20540;-82
2022/06/06 08:56:44;;;;;;;10.33;4.70;;;;;;;33.08;37.23;94434.13;5057506;28;20394;-81
2022/06/06 08:59:31;;;;;;;7.13;5.27;;;;;;;33.50;36.03;94439.22;5085177;28;20445;-84
2022/06/06 09:01:57;;;;;;;10.43;4.90;;;;;;;32.58;38.15;94441.56;5080555;28;20450;-80
2022/06/06 09:04:46;;;;;;;7.97;4.57;;;;;;;32.98;37.00;94434.63;5099064;28;20445;-82
2022/06/06 09:07:34;;;;;;;4.80;3.80;;;;;;;32.35;36.86;94440.41;5083173;28;20181;-83
2022/06/06 09:10:39;;;;;;;5.70;4.10;;;;;;;31.82;35.59;94461.84;5084666;28;20432;-83
2022/06/06 09:13:26;;;;;;;5.60;3.57;;;;;;;30.73;36.89;94459.78;5087423;28;20466;-83
2022/06/06 09:16:23;;;;;;;3.90;3.50;;;;;;;30.58;37.74;94473.06;5102082;28;20509;-83
2022/06/06 09:18:48;;;;;;;4.37;3.10;;;;;;;31.18;36.31;94471.91;5086319;28;20448;-83
2022/06/06 09:21:39;;;;;;;5.90;4.20;;;;;;;31.21;36.55;94487.50;5094627;28;20523;-82
2022/06/06 09:24:27;;;;;;;4.33;3.93;;;;;;;30.90;36.86;94483.22;5085223;28;20174;-82
2022/06/06 09:27:30;;;;;;;7.17;4.53;;;;;;;30.03;39.10;94521.38;5082236;28;20503;-82
2022/06/06 09:30:02;;;;;;;4.40;4.00;;;;;;;28.78;42.77;94525.38;5081698;28;20965;-82
2022/06/06 09:32:58;;;;;;;6.27;4.17;;;;;;;29.42;41.99;94518.69;5079040;28;20483;-83
2022/06/06 09:35:39;;;;;;;6.67;4.23;;;;;;;30.00;40.87;94507.72;5099426;28;20443;-82
2022/06/06 09:38:14;;;;;;;5.40;4.33;;;;;;;28.83;43.39;94508.25;5082167;28;20455;-83
2022/06/06 09:41:07;;;;;;;3.90;3.50;;;;;;;29.47;41.94;94505.03;5085592;28;20408;-81
2022/06/06 09:44:11;;;;;;;4.93;4.53;;;;;;;28.93;42.96;94499.91;5084880;28;20418;-82
2022/06/06 09:47:01;;;;;;;3.43;3.10;;;;;;;29.32;40.51;94497.44;5097460;28;20427;-81
2022/06/06 09:50:03;;;;;;;2.63;2.43;;;;;;;29.74;40.37;94509.31;5083722;28;20420;-82
2022/06/06 09:53:06;;;;;;;7.23;4.33;;;;;;;30.54;37.50;94502.63;5098937;28;20418;-83
2022/06/06 09:59:06;;;;;;;5.43;3.80;;;;;;;32.49;34.31;94492.34;5077775;28;22304;-83
2022/06/06 10:02:04;;;;;;;3.67;3.37;;;;;;;32.93;33.84;94486.38;5084577;28;20435;-82
2022/06/06 10:05:07;;;;;;;3.60;3.07;;;;;;;30.27;36.75;94482.22;5079221;28;20420;-82
2022/06/06 10:08:00;;;;;;;6.23;4.03;;;;;;;30.27;36.05;94483.00;5094908;28;20420;-82
2022/06/06 10:10:41;;;;;;;3.90;3.70;;;;;;;31.43;34.73;94488.28;5097630;28;20459;-83
2022/06/06 10:13:17;;;;;;;4.97;3.93;;;;;;;32.22;33.38;94497.28;5075812;28;20420;-82
2022/06/06 10:16:20;;;;;;;6.13;2.77;;;;;;;31.85;33.73;94488.25;5085791;28;20510;-83
2022/06/06 10:19:03;;;;;;;2.70;2.50;;;;;;;31.10;34.61;94489.78;5083933;28;20493;-83
2022/06/06 10:21:55;;;;;;;5.53;4.37;;;;;;;31.59;34.53;94508.22;5085677;28;20456;-83
2022/06/06 10:24:54;;;;;;;3.50;3.20;;;;;;;31.74;34.42;94516.84;5085012;28;20424;-82
2022/06/06 10:27:28;;;;;;;4.13;3.00;;;;;;;31.52;35.04;94535.00;5087876;28;20427;-83
2022/06/06 10:30:43;;;;;;;6.60;3.80;;;;;;;32.21;35.07;94521.97;5104452;28;20484;-83
2022/06/06 10:33:12;;;;;;;5.77;4.33;;;;;;;31.54;37.76;94510.34;5046490;28;20443;-82
2022/06/06 10:36:11;;;;;;;13.67;4.20;;;;;;;30.73;40.03;94504.91;5088993;28;20485;-82
2022/06/06 10:38:51;;;;;;;8.00;3.50;;;;;;;31.63;37.93;94514.56;5082792;28;20460;-83
2022/06/06 10:41:34;;;;;;;8.33;3.80;;;;;;;32.04;37.90;94523.78;5103051;28;20439;-82
2022/06/06 10:44:18;;;;;;;4.23;3.83;;;;;;;31.52;38.90;94516.06;5087458;28;20807;-83
2022/06/06 10:46:56;;;;;;;5.73;3.80;;;;;;;32.29;37.12;94510.28;5075506;28;20427;-84
2022/06/06 10:49:46;;;;;;;4.17;3.80;;;;;;;32.26;37.36;94489.28;5087475;28;20523;-82
2022/06/06 10:52:20;;;;;;;8.10;4.40;;;;;;;30.40;40.18;94494.75;5088855;28;20423;-81
2022/06/06 10:55:03;;;;;;;4.73;3.83;;;;;;;29.96;41.05;94488.66;5084047;28;20425;-74
2022/06/06 10:58:06;;;;;;;5.23;4.10;;;;;;;30.44;41.91;94484.88;5087982;28;20420;-74
2022/06/06 11:00:34;;;;;;;9.23;5.33;;;;;;;31.07;41.66;94500.47;5074222;28;20463;-74
2022/06/06 11:03:21;;;;;;;4.67;4.23;;;;;;;30.96;41.49;94496.56;5086317;28;20443;-74
2022/06/06 11:06:03;;;;;;;4.00;3.70;;;;;;;31.16;40.47;94493.09;5087444;28;20438;-74
2022/06/06 11:08:50;;;;;;;5.10;4.60;;;;;;;31.13;40.58;94480.22;5076927;28;20462;-74
2022/06/06 11:11:42;;;;;;;3.37;3.17;;;;;;;30.68;40.26;94481.59;5077928;28;20408;-73
2022/06/06 11:14:07;;;;;;;5.63;5.10;;;;;;;30.67;41.67;94492.72;5085832;28;20514;-74
2022/06/06 11:16:52;;;;;;;7.23;5.50;;;;;;;30.65;41.70;94494.97;5087228;28;20419;-74
2022/06/06 11:19:29;;;;;;;5.80;4.73;;;;;;;30.95;41.07;94495.78;5087222;28;20190;-74
2022/06/06 11:22:00;;;;;;;5.67;5.10;;;;;;;31.23;41.12;94498.78;5087058;28;20415;-74
2022/06/06 11:24:35;;;;;;;4.53;4.13;;;;;;;31.67;40.29;94504.66;5085651;28;20492;-74
2022/06/06 11:27:46;;;;;;;5.30;4.47;;;;;;;31.69;40.13;94504.31;5083255;28;20466;-74
2022/06/06 11:30:36;;;;;;;5.73;5.23;;;;;;;31.59;41.12;94488.47;5081504;28;20424;-74
2022/06/06 11:33:44;;;;;;;6.17;5.57;;;;;;;31.28;41.65;94482.34;5085891;28;20412;-74
2022/06/06 11:36:57;;;;;;;4.70;4.40;;;;;;;31.18;41.12;94476.53;5086913;28;20412;-74
2022/06/06 11:39:52;;;;;;;5.87;4.07;;;;;;;31.40;40.87;94472.69;5086205;28;20475;-73
2022/06/06 11:42:43;;;;;;;4.47;4.07;;;;;;;30.01;42.84;94474.97;5084926;28;20476;-73
2022/06/06 11:45:22;;;;;;;5.13;4.60;;;;;;;29.65;42.92;94473.44;5086640;28;20431;-73
2022/06/06 11:48:19;;;;;;;5.63;4.97;;;;;;;30.89;40.51;94481.63;5085944;28;20454;-74
2022/06/06 11:51:06;;;;;;;5.17;4.53;;;;;;;29.80;42.44;94479.50;5085444;28;20407;-73
2022/06/06 11:53:32;;;;;;;5.03;4.53;;;;;;;29.46;43.86;94484.56;5085034;28;20444;-73
2022/06/06 11:56:19;;;;;;;6.00;5.50;;;;;;;29.89;42.97;94482.97;5084835;28;20435;-74
2022/06/06 11:59:10;;;;;;;4.80;4.40;;;;;;;30.22;41.30;94485.09;5075696;28;20201;-74
2022/06/06 12:01:42;;;;;;;4.83;4.43;;;;;;;30.65;40.87;94481.44;5081393;28;20883;-74
2022/06/06 12:04:46;;;;;;;4.67;4.30;;;;;;;31.32;39.95;94487.88;5079151;28;20516;-74
2022/06/06 12:07:17;;;;;;;5.97;5.23;;;;;;;31.47;39.89;94483.81;5074055;28;20440;-74
2022/06/06 12:09:42;;;;;;;5.00;4.60;;;;;;;30.85;40.89;94486.09;5082761;28;20958;-74
2022/06/06 12:12:52;;;;;;;5.50;4.60;;;;;;;30.29;41.24;94478.06;5086311;28;20435;-74
2022/06/06 12:15:49;;;;;;;8.17;4.93;;;;;;;30.39;40.75;94470.75;5059243;28;20184;-74
2022/06/06 12:18:49;;;;;;;6.47;5.27;;;;;;;30.00;41.96;94459.13;5080780;28;20456;-74
2022/06/06 12:21:26;;;;;;;4.80;4.30;;;;;;;29.15;43.32;94428.13;5084641;28;20480;-74
2022/06/06 12:23:54;;;;;;;8.77;6.53;;;;;;;29.86;43.06;94425.06;5079587;28;20420;-74
2022/06/06 12:26:50;;;;;;;5.57;5.07;;;;;;;29.43;44.15;94427.81;5079396;28;20435;-75
2022/06/06 12:29:36;;;;;;;9.07;5.87;;;;;;;30.27;42.48;94434.41;5084360;28;20403;-75
2022/06/06 12:32:30;;;;;;;7.93;6.90;;;;;;;30.47;42.59;94437.53;5085538;28;20427;-74
2022/06/06 12:35:20;;;;;;;11.90;7.07;;;;;;;31.18;40.87;94471.91;5092324;28;20505;-73
2022/06/06 12:38:26;;;;;;;8.13;5.80;;;;;;;31.64;39.45;94467.41;5074865;28;20452;-73
2022/06/06 12:41:11;;;;;;;5.40;5.10;;;;;;;31.36;39.98;94477.19;5079040;28;20429;-73
2022/06/06 12:43:58;;;;;;;5.23;4.73;;;;;;;31.92;38.76;94478.44;5097139;28;20460;-73
2022/06/06 12:46:44;;;;;;;7.20;5.20;;;;;;;32.09;38.58;94482.91;5085502;28;20457;-73